LZIB

M. R. Štefánik Airport

Bratislava, Slovakia (Slovak Republic)
METAR LZIB 241130Z 07006KT 350V120 9999 FEW048 26/14 Q1017 NOSIG
Observed Flight Rules
May-24 @ 11:30 UTC (35 minutes ago) Visual Flight Rules
Wind Visibility Clouds
70° at 6 knots 10,000+ meters
  • Few at 4,800' AGL
Temperatures Readings
Current 26°C / 79°F
Dewpoint 14°C / 57°F
Humidity 48%
Altimeter 30.03" Hg
Pressure 1017 hPa
Elevation 134
METAR LZIB 241130Z 07006KT 350V120 9999 FEW048 26/14 Q1017 NOSIG
Observed Flight Rules
May-24 @ 11:30 UTC
(35 minutes ago)
VFR
Wind Visibility
70° at 6 knots 10,000+ meters
Clouds
  • Few at 4,800' AGL
Temperature Dewpoint
26°C / 79°F 14°C / 57°F
Humidity Altimeter Pressure
48% 30.03" Hg 1017 hPa